sensor_id;sensor_type;location;lat;lon;timestamp;P1;durP1;ratioP1;P2;durP2;ratioP2
79076;SDS011;68477;42.698;23.342;2023-04-24T00:00:53;9.82;;;6.07;;
79076;SDS011;68477;42.698;23.342;2023-04-24T00:03:21;9.00;;;5.45;;
79076;SDS011;68477;42.698;23.342;2023-04-24T00:05:47;10.85;;;5.13;;
79076;SDS011;68477;42.698;23.342;2023-04-24T00:08:13;8.73;;;4.70;;
79076;SDS011;68477;42.698;23.342;2023-04-24T00:10:38;6.90;;;4.95;;
79076;SDS011;68477;42.698;23.342;2023-04-24T00:13:04;11.43;;;5.45;;
79076;SDS011;68477;42.698;23.342;2023-04-24T00:15:29;8.75;;;5.40;;
79076;SDS011;68477;42.698;23.342;2023-04-24T00:17:56;8.73;;;4.85;;
79076;SDS011;68477;42.698;23.342;2023-04-24T00:20:21;8.68;;;4.70;;
79076;SDS011;68477;42.698;23.342;2023-04-24T00:22:47;8.65;;;5.50;;
79076;SDS011;68477;42.698;23.342;2023-04-24T00:25:13;11.80;;;4.85;;
79076;SDS011;68477;42.698;23.342;2023-04-24T00:27:38;11.75;;;4.93;;
79076;SDS011;68477;42.698;23.342;2023-04-24T00:30:04;8.68;;;5.55;;
79076;SDS011;68477;42.698;23.342;2023-04-24T00:32:30;8.77;;;4.82;;
79076;SDS011;68477;42.698;23.342;2023-04-24T00:34:55;8.45;;;5.38;;
79076;SDS011;68477;42.698;23.342;2023-04-24T00:37:21;6.72;;;4.80;;
79076;SDS011;68477;42.698;23.342;2023-04-24T00:39:46;8.30;;;5.20;;
79076;SDS011;68477;42.698;23.342;2023-04-24T00:42:11;6.68;;;4.55;;
79076;SDS011;68477;42.698;23.342;2023-04-24T00:44:37;8.35;;;4.72;;
79076;SDS011;68477;42.698;23.342;2023-04-24T00:47:03;8.60;;;4.65;;
79076;SDS011;68477;42.698;23.342;2023-04-24T00:49:28;6.90;;;4.53;;
79076;SDS011;68477;42.698;23.342;2023-04-24T00:51:54;6.95;;;4.70;;
79076;SDS011;68477;42.698;23.342;2023-04-24T00:54:19;8.15;;;5.03;;
79076;SDS011;68477;42.698;23.342;2023-04-24T00:56:45;8.13;;;4.80;;
79076;SDS011;68477;42.698;23.342;2023-04-24T00:59:12;7.43;;;5.07;;
79076;SDS011;68477;42.698;23.342;2023-04-24T01:01:38;8.85;;;5.35;;
79076;SDS011;68477;42.698;23.342;2023-04-24T01:06:32;5.70;;;4.07;;
79076;SDS011;68477;42.698;23.342;2023-04-24T01:08:58;7.38;;;4.55;;
79076;SDS011;68477;42.698;23.342;2023-04-24T01:11:25;9.55;;;5.05;;
79076;SDS011;68477;42.698;23.342;2023-04-24T01:13:51;6.78;;;4.70;;
79076;SDS011;68477;42.698;23.342;2023-04-24T01:16:17;7.38;;;4.90;;
79076;SDS011;68477;42.698;23.342;2023-04-24T01:18:45;6.13;;;4.35;;
79076;SDS011;68477;42.698;23.342;2023-04-24T01:21:11;9.20;;;4.95;;
79076;SDS011;68477;42.698;23.342;2023-04-24T01:23:39;8.85;;;5.43;;
79076;SDS011;68477;42.698;23.342;2023-04-24T01:26:05;13.90;;;5.53;;
79076;SDS011;68477;42.698;23.342;2023-04-24T01:28:30;10.50;;;5.28;;
79076;SDS011;68477;42.698;23.342;2023-04-24T01:30:56;10.80;;;5.88;;
79076;SDS011;68477;42.698;23.342;2023-04-24T01:33:21;8.57;;;5.47;;
79076;SDS011;68477;42.698;23.342;2023-04-24T01:35:47;8.35;;;4.97;;
79076;SDS011;68477;42.698;23.342;2023-04-24T01:38:13;10.63;;;5.68;;
79076;SDS011;68477;42.698;23.342;2023-04-24T01:40:39;8.02;;;5.30;;
79076;SDS011;68477;42.698;23.342;2023-04-24T01:43:05;8.40;;;5.55;;
79076;SDS011;68477;42.698;23.342;2023-04-24T01:45:30;9.60;;;5.57;;
79076;SDS011;68477;42.698;23.342;2023-04-24T01:47:56;7.82;;;5.70;;
79076;SDS011;68477;42.698;23.342;2023-04-24T01:50:22;19.98;;;6.45;;
79076;SDS011;68477;42.698;23.342;2023-04-24T01:52:47;9.82;;;5.75;;
79076;SDS011;68477;42.698;23.342;2023-04-24T01:55:13;10.57;;;6.47;;
79076;SDS011;68477;42.698;23.342;2023-04-24T01:57:38;9.40;;;6.75;;
79076;SDS011;68477;42.698;23.342;2023-04-24T02:00:05;12.88;;;6.65;;
79076;SDS011;68477;42.698;23.342;2023-04-24T02:02:32;8.80;;;6.28;;
79076;SDS011;68477;42.698;23.342;2023-04-24T02:04:58;11.05;;;6.25;;
79076;SDS011;68477;42.698;23.342;2023-04-24T02:07:24;9.45;;;6.32;;
79076;SDS011;68477;42.698;23.342;2023-04-24T02:09:49;10.98;;;5.78;;
79076;SDS011;68477;42.698;23.342;2023-04-24T02:12:15;9.13;;;6.10;;
79076;SDS011;68477;42.698;23.342;2023-04-24T02:14:42;11.48;;;6.47;;
79076;SDS011;68477;42.698;23.342;2023-04-24T02:17:07;8.32;;;5.50;;
79076;SDS011;68477;42.698;23.342;2023-04-24T02:19:33;11.65;;;6.22;;
79076;SDS011;68477;42.698;23.342;2023-04-24T02:21:59;8.32;;;5.60;;
79076;SDS011;68477;42.698;23.342;2023-04-24T02:24:25;9.63;;;5.80;;
79076;SDS011;68477;42.698;23.342;2023-04-24T02:26:50;10.38;;;6.25;;
79076;SDS011;68477;42.698;23.342;2023-04-24T02:29:16;11.40;;;6.75;;
79076;SDS011;68477;42.698;23.342;2023-04-24T02:31:41;9.57;;;5.95;;
79076;SDS011;68477;42.698;23.342;2023-04-24T02:34:07;12.07;;;5.88;;
79076;SDS011;68477;42.698;23.342;2023-04-24T02:36:32;10.50;;;6.50;;
79076;SDS011;68477;42.698;23.342;2023-04-24T02:38:58;11.25;;;6.30;;
79076;SDS011;68477;42.698;23.342;2023-04-24T02:41:23;9.95;;;5.93;;
79076;SDS011;68477;42.698;23.342;2023-04-24T02:43:48;8.93;;;6.20;;
79076;SDS011;68477;42.698;23.342;2023-04-24T02:46:14;8.77;;;4.95;;
79076;SDS011;68477;42.698;23.342;2023-04-24T02:48:40;13.52;;;5.50;;
79076;SDS011;68477;42.698;23.342;2023-04-24T02:51:05;10.38;;;6.00;;
79076;SDS011;68477;42.698;23.342;2023-04-24T02:53:32;9.75;;;6.43;;
79076;SDS011;68477;42.698;23.342;2023-04-24T02:55:58;11.98;;;7.43;;
79076;SDS011;68477;42.698;23.342;2023-04-24T02:58:23;11.75;;;6.45;;
79076;SDS011;68477;42.698;23.342;2023-04-24T03:00:52;12.75;;;6.82;;
79076;SDS011;68477;42.698;23.342;2023-04-24T03:03:20;9.35;;;5.80;;
79076;SDS011;68477;42.698;23.342;2023-04-24T03:05:46;15.32;;;6.28;;
79076;SDS011;68477;42.698;23.342;2023-04-24T03:08:12;11.68;;;7.25;;
79076;SDS011;68477;42.698;23.342;2023-04-24T03:10:37;9.30;;;6.25;;
79076;SDS011;68477;42.698;23.342;2023-04-24T03:13:03;12.07;;;6.63;;
79076;SDS011;68477;42.698;23.342;2023-04-24T03:15:28;15.18;;;7.07;;
79076;SDS011;68477;42.698;23.342;2023-04-24T03:17:54;11.70;;;5.93;;
79076;SDS011;68477;42.698;23.342;2023-04-24T03:20:20;10.32;;;6.10;;
79076;SDS011;68477;42.698;23.342;2023-04-24T03:22:45;9.80;;;6.63;;
79076;SDS011;68477;42.698;23.342;2023-04-24T03:25:11;13.30;;;6.50;;
79076;SDS011;68477;42.698;23.342;2023-04-24T03:27:36;11.38;;;6.47;;
79076;SDS011;68477;42.698;23.342;2023-04-24T03:30:02;10.13;;;6.13;;
79076;SDS011;68477;42.698;23.342;2023-04-24T03:32:28;9.43;;;6.10;;
79076;SDS011;68477;42.698;23.342;2023-04-24T03:34:53;13.65;;;6.45;;
79076;SDS011;68477;42.698;23.342;2023-04-24T03:37:19;14.77;;;7.00;;
79076;SDS011;68477;42.698;23.342;2023-04-24T03:39:44;11.35;;;6.68;;
79076;SDS011;68477;42.698;23.342;2023-04-24T03:42:10;11.63;;;7.15;;
79076;SDS011;68477;42.698;23.342;2023-04-24T03:44:35;9.38;;;6.20;;
79076;SDS011;68477;42.698;23.342;2023-04-24T03:47:01;10.98;;;6.72;;
79076;SDS011;68477;42.698;23.342;2023-04-24T03:49:27;15.52;;;6.50;;
79076;SDS011;68477;42.698;23.342;2023-04-24T03:51:53;21.55;;;7.15;;
79076;SDS011;68477;42.698;23.342;2023-04-24T03:54:19;10.65;;;6.65;;
79076;SDS011;68477;42.698;23.342;2023-04-24T03:56:46;11.13;;;7.05;;
79076;SDS011;68477;42.698;23.342;2023-04-24T03:59:11;11.80;;;6.82;;
79076;SDS011;68477;42.698;23.342;2023-04-24T04:01:38;16.05;;;6.75;;
79076;SDS011;68477;42.698;23.342;2023-04-24T04:04:05;9.50;;;6.60;;
79076;SDS011;68477;42.698;23.342;2023-04-24T04:06:33;11.95;;;6.78;;
79076;SDS011;68477;42.698;23.342;2023-04-24T04:08:59;9.80;;;6.47;;
79076;SDS011;68477;42.698;23.342;2023-04-24T04:11:24;8.80;;;5.85;;
79076;SDS011;68477;42.698;23.342;2023-04-24T04:13:50;10.68;;;6.05;;
79076;SDS011;68477;42.698;23.342;2023-04-24T04:16:16;12.65;;;5.88;;
79076;SDS011;68477;42.698;23.342;2023-04-24T04:18:44;9.85;;;6.07;;
79076;SDS011;68477;42.698;23.342;2023-04-24T04:21:10;12.35;;;6.40;;
79076;SDS011;68477;42.698;23.342;2023-04-24T04:23:36;10.88;;;5.97;;
79076;SDS011;68477;42.698;23.342;2023-04-24T04:26:01;13.35;;;5.55;;
79076;SDS011;68477;42.698;23.342;2023-04-24T04:28:28;10.80;;;5.18;;
79076;SDS011;68477;42.698;23.342;2023-04-24T04:30:55;10.68;;;5.70;;
79076;SDS011;68477;42.698;23.342;2023-04-24T04:33:22;13.10;;;6.22;;
79076;SDS011;68477;42.698;23.342;2023-04-24T04:35:48;12.02;;;5.25;;
79076;SDS011;68477;42.698;23.342;2023-04-24T04:38:14;9.10;;;5.55;;
79076;SDS011;68477;42.698;23.342;2023-04-24T04:40:41;10.75;;;5.85;;
79076;SDS011;68477;42.698;23.342;2023-04-24T04:43:07;12.10;;;6.85;;
79076;SDS011;68477;42.698;23.342;2023-04-24T04:45:33;7.80;;;6.35;;
79076;SDS011;68477;42.698;23.342;2023-04-24T04:47:59;13.18;;;6.55;;
79076;SDS011;68477;42.698;23.342;2023-04-24T04:50:27;8.85;;;6.07;;
79076;SDS011;68477;42.698;23.342;2023-04-24T04:52:52;15.75;;;7.25;;
79076;SDS011;68477;42.698;23.342;2023-04-24T04:55:18;10.85;;;7.47;;
79076;SDS011;68477;42.698;23.342;2023-04-24T04:57:45;16.75;;;8.25;;
79076;SDS011;68477;42.698;23.342;2023-04-24T05:00:11;12.18;;;7.72;;
79076;SDS011;68477;42.698;23.342;2023-04-24T05:02:37;14.68;;;8.13;;
79076;SDS011;68477;42.698;23.342;2023-04-24T05:05:05;13.93;;;9.25;;
79076;SDS011;68477;42.698;23.342;2023-04-24T05:07:32;21.98;;;10.88;;
79076;SDS011;68477;42.698;23.342;2023-04-24T05:09:57;20.90;;;11.82;;
79076;SDS011;68477;42.698;23.342;2023-04-24T05:12:23;20.63;;;12.63;;
79076;SDS011;68477;42.698;23.342;2023-04-24T05:14:50;21.65;;;9.48;;
79076;SDS011;68477;42.698;23.342;2023-04-24T05:17:15;15.40;;;8.60;;
79076;SDS011;68477;42.698;23.342;2023-04-24T05:19:41;12.98;;;8.52;;
79076;SDS011;68477;42.698;23.342;2023-04-24T05:22:08;13.57;;;8.35;;
79076;SDS011;68477;42.698;23.342;2023-04-24T05:24:34;12.40;;;7.78;;
79076;SDS011;68477;42.698;23.342;2023-04-24T05:27:01;12.30;;;7.70;;
79076;SDS011;68477;42.698;23.342;2023-04-24T05:29:27;17.38;;;7.13;;
79076;SDS011;68477;42.698;23.342;2023-04-24T05:31:55;116.68;;;17.83;;
79076;SDS011;68477;42.698;23.342;2023-04-24T05:34:21;38.38;;;11.43;;
79076;SDS011;68477;42.698;23.342;2023-04-24T05:36:47;11.55;;;7.65;;
79076;SDS011;68477;42.698;23.342;2023-04-24T05:39:13;32.67;;;11.38;;
79076;SDS011;68477;42.698;23.342;2023-04-24T05:41:38;14.23;;;7.53;;
79076;SDS011;68477;42.698;23.342;2023-04-24T05:44:05;85.47;;;20.15;;
79076;SDS011;68477;42.698;23.342;2023-04-24T05:46:30;87.80;;;20.02;;
79076;SDS011;68477;42.698;23.342;2023-04-24T05:48:55;85.68;;;20.50;;
79076;SDS011;68477;42.698;23.342;2023-04-24T05:51:22;74.05;;;17.52;;
79076;SDS011;68477;42.698;23.342;2023-04-24T05:53:48;85.85;;;21.02;;
79076;SDS011;68477;42.698;23.342;2023-04-24T05:56:13;45.22;;;14.13;;
79076;SDS011;68477;42.698;23.342;2023-04-24T05:58:39;19.90;;;9.55;;
79076;SDS011;68477;42.698;23.342;2023-04-24T06:01:05;17.58;;;8.40;;
79076;SDS011;68477;42.698;23.342;2023-04-24T06:03:31;20.40;;;9.25;;
79076;SDS011;68477;42.698;23.342;2023-04-24T06:05:56;50.88;;;13.43;;
79076;SDS011;68477;42.698;23.342;2023-04-24T06:08:22;13.75;;;7.15;;
79076;SDS011;68477;42.698;23.342;2023-04-24T06:10:48;67.63;;;15.35;;
79076;SDS011;68477;42.698;23.342;2023-04-24T06:13:14;16.25;;;8.27;;
79076;SDS011;68477;42.698;23.342;2023-04-24T06:15:40;22.48;;;9.32;;
79076;SDS011;68477;42.698;23.342;2023-04-24T06:18:06;19.05;;;8.73;;
79076;SDS011;68477;42.698;23.342;2023-04-24T06:20:32;21.35;;;8.65;;
79076;SDS011;68477;42.698;23.342;2023-04-24T06:22:57;15.73;;;8.75;;
79076;SDS011;68477;42.698;23.342;2023-04-24T06:25:24;39.63;;;9.93;;
79076;SDS011;68477;42.698;23.342;2023-04-24T06:27:54;16.85;;;7.22;;
79076;SDS011;68477;42.698;23.342;2023-04-24T06:30:20;17.17;;;8.30;;
79076;SDS011;68477;42.698;23.342;2023-04-24T06:32:46;14.40;;;7.85;;
79076;SDS011;68477;42.698;23.342;2023-04-24T06:35:11;18.48;;;9.88;;
79076;SDS011;68477;42.698;23.342;2023-04-24T06:37:38;18.27;;;8.32;;
79076;SDS011;68477;42.698;23.342;2023-04-24T06:40:05;14.15;;;7.35;;
79076;SDS011;68477;42.698;23.342;2023-04-24T06:42:31;13.98;;;8.18;;
79076;SDS011;68477;42.698;23.342;2023-04-24T06:44:56;13.77;;;7.78;;
79076;SDS011;68477;42.698;23.342;2023-04-24T06:47:22;15.05;;;8.20;;
79076;SDS011;68477;42.698;23.342;2023-04-24T06:49:47;14.82;;;7.93;;
79076;SDS011;68477;42.698;23.342;2023-04-24T06:52:13;21.73;;;8.23;;
79076;SDS011;68477;42.698;23.342;2023-04-24T06:54:41;14.00;;;8.48;;
79076;SDS011;68477;42.698;23.342;2023-04-24T06:57:06;12.10;;;7.35;;
79076;SDS011;68477;42.698;23.342;2023-04-24T06:59:33;13.07;;;9.15;;
79076;SDS011;68477;42.698;23.342;2023-04-24T07:01:58;16.88;;;8.25;;
79076;SDS011;68477;42.698;23.342;2023-04-24T07:04:24;14.35;;;8.10;;
79076;SDS011;68477;42.698;23.342;2023-04-24T07:06:50;16.25;;;8.73;;
79076;SDS011;68477;42.698;23.342;2023-04-24T07:09:16;17.13;;;8.60;;
79076;SDS011;68477;42.698;23.342;2023-04-24T07:11:43;16.77;;;7.95;;
79076;SDS011;68477;42.698;23.342;2023-04-24T07:14:09;19.05;;;9.77;;
79076;SDS011;68477;42.698;23.342;2023-04-24T07:16:35;20.55;;;8.40;;
79076;SDS011;68477;42.698;23.342;2023-04-24T07:19:00;17.92;;;8.52;;
79076;SDS011;68477;42.698;23.342;2023-04-24T07:21:26;15.40;;;8.55;;
79076;SDS011;68477;42.698;23.342;2023-04-24T07:23:52;18.40;;;8.88;;
79076;SDS011;68477;42.698;23.342;2023-04-24T07:26:18;14.05;;;8.82;;
79076;SDS011;68477;42.698;23.342;2023-04-24T07:28:45;14.30;;;8.45;;
79076;SDS011;68477;42.698;23.342;2023-04-24T07:31:11;13.30;;;7.78;;
79076;SDS011;68477;42.698;23.342;2023-04-24T07:33:37;12.88;;;7.30;;
79076;SDS011;68477;42.698;23.342;2023-04-24T07:36:03;16.00;;;8.10;;
79076;SDS011;68477;42.698;23.342;2023-04-24T07:38:31;19.02;;;8.65;;
79076;SDS011;68477;42.698;23.342;2023-04-24T07:43:23;16.73;;;9.68;;
79076;SDS011;68477;42.698;23.342;2023-04-24T07:45:49;18.80;;;8.60;;
79076;SDS011;68477;42.698;23.342;2023-04-24T07:48:15;13.23;;;7.90;;
79076;SDS011;68477;42.698;23.342;2023-04-24T07:50:42;13.18;;;7.00;;
79076;SDS011;68477;42.698;23.342;2023-04-24T07:53:08;14.00;;;7.55;;
79076;SDS011;68477;42.698;23.342;2023-04-24T07:55:34;11.85;;;6.60;;
79076;SDS011;68477;42.698;23.342;2023-04-24T07:57:59;12.63;;;6.70;;
79076;SDS011;68477;42.698;23.342;2023-04-24T08:00:25;10.00;;;6.07;;
79076;SDS011;68477;42.698;23.342;2023-04-24T08:02:51;12.43;;;6.82;;
79076;SDS011;68477;42.698;23.342;2023-04-24T08:05:16;16.95;;;7.85;;
79076;SDS011;68477;42.698;23.342;2023-04-24T08:07:46;12.77;;;7.45;;
79076;SDS011;68477;42.698;23.342;2023-04-24T08:10:13;10.90;;;6.72;;
79076;SDS011;68477;42.698;23.342;2023-04-24T08:12:39;10.52;;;6.88;;
79076;SDS011;68477;42.698;23.342;2023-04-24T08:15:06;11.90;;;6.72;;
79076;SDS011;68477;42.698;23.342;2023-04-24T08:17:33;12.10;;;7.43;;
79076;SDS011;68477;42.698;23.342;2023-04-24T08:20:00;20.40;;;9.10;;
79076;SDS011;68477;42.698;23.342;2023-04-24T08:22:29;15.50;;;7.40;;
79076;SDS011;68477;42.698;23.342;2023-04-24T08:24:55;11.93;;;7.10;;
79076;SDS011;68477;42.698;23.342;2023-04-24T08:27:21;9.45;;;5.88;;
79076;SDS011;68477;42.698;23.342;2023-04-24T08:29:49;13.27;;;7.43;;
79076;SDS011;68477;42.698;23.342;2023-04-24T08:32:15;11.32;;;6.32;;
79076;SDS011;68477;42.698;23.342;2023-04-24T08:34:40;9.70;;;5.93;;
79076;SDS011;68477;42.698;23.342;2023-04-24T08:37:06;9.55;;;6.00;;
79076;SDS011;68477;42.698;23.342;2023-04-24T08:39:31;10.07;;;6.07;;
79076;SDS011;68477;42.698;23.342;2023-04-24T08:41:57;11.18;;;5.55;;
79076;SDS011;68477;42.698;23.342;2023-04-24T08:44:30;11.80;;;5.55;;
79076;SDS011;68477;42.698;23.342;2023-04-24T08:46:57;11.40;;;6.22;;
79076;SDS011;68477;42.698;23.342;2023-04-24T08:49:23;10.38;;;5.88;;
79076;SDS011;68477;42.698;23.342;2023-04-24T08:51:49;9.02;;;5.93;;
79076;SDS011;68477;42.698;23.342;2023-04-24T08:54:17;15.40;;;5.85;;
79076;SDS011;68477;42.698;23.342;2023-04-24T08:56:44;11.32;;;5.35;;
79076;SDS011;68477;42.698;23.342;2023-04-24T08:59:12;9.93;;;5.30;;
79076;SDS011;68477;42.698;23.342;2023-04-24T09:01:39;10.50;;;5.55;;
79076;SDS011;68477;42.698;23.342;2023-04-24T09:04:06;8.90;;;5.47;;
79076;SDS011;68477;42.698;23.342;2023-04-24T09:06:38;10.05;;;5.55;;
79076;SDS011;68477;42.698;23.342;2023-04-24T09:09:04;11.10;;;5.50;;
79076;SDS011;68477;42.698;23.342;2023-04-24T09:11:30;10.30;;;5.20;;
79076;SDS011;68477;42.698;23.342;2023-04-24T09:13:57;8.57;;;5.63;;
79076;SDS011;68477;42.698;23.342;2023-04-24T09:16:24;12.95;;;5.72;;
79076;SDS011;68477;42.698;23.342;2023-04-24T09:18:50;7.78;;;5.05;;
79076;SDS011;68477;42.698;23.342;2023-04-24T09:21:16;7.45;;;4.93;;
79076;SDS011;68477;42.698;23.342;2023-04-24T09:23:42;12.23;;;7.07;;
79076;SDS011;68477;42.698;23.342;2023-04-24T09:26:08;9.27;;;4.53;;
79076;SDS011;68477;42.698;23.342;2023-04-24T09:28:38;6.95;;;5.03;;
79076;SDS011;68477;42.698;23.342;2023-04-24T09:31:14;7.93;;;5.13;;
79076;SDS011;68477;42.698;23.342;2023-04-24T09:33:56;7.45;;;4.68;;
79076;SDS011;68477;42.698;23.342;2023-04-24T09:36:27;9.73;;;5.20;;
79076;SDS011;68477;42.698;23.342;2023-04-24T09:39:02;9.07;;;5.43;;
79076;SDS011;68477;42.698;23.342;2023-04-24T09:41:31;8.27;;;5.35;;
79076;SDS011;68477;42.698;23.342;2023-04-24T09:43:57;7.55;;;5.25;;
79076;SDS011;68477;42.698;23.342;2023-04-24T09:46:37;6.57;;;5.07;;
79076;SDS011;68477;42.698;23.342;2023-04-24T09:49:09;9.18;;;4.97;;
79076;SDS011;68477;42.698;23.342;2023-04-24T09:51:38;13.13;;;5.30;;
79076;SDS011;68477;42.698;23.342;2023-04-24T09:54:24;9.32;;;5.68;;
79076;SDS011;68477;42.698;23.342;2023-04-24T09:56:50;6.97;;;4.75;;
79076;SDS011;68477;42.698;23.342;2023-04-24T09:59:17;9.77;;;4.78;;
79076;SDS011;68477;42.698;23.342;2023-04-24T10:01:45;9.55;;;5.35;;
79076;SDS011;68477;42.698;23.342;2023-04-24T10:04:21;8.45;;;5.22;;
79076;SDS011;68477;42.698;23.342;2023-04-24T10:06:49;7.65;;;5.18;;
79076;SDS011;68477;42.698;23.342;2023-04-24T10:09:19;6.97;;;5.05;;
79076;SDS011;68477;42.698;23.342;2023-04-24T10:11:47;10.55;;;5.25;;
79076;SDS011;68477;42.698;23.342;2023-04-24T10:14:19;7.32;;;4.85;;
79076;SDS011;68477;42.698;23.342;2023-04-24T10:16:47;8.00;;;5.18;;
79076;SDS011;68477;42.698;23.342;2023-04-24T10:19:14;10.27;;;5.38;;
79076;SDS011;68477;42.698;23.342;2023-04-24T10:21:41;7.82;;;4.57;;
79076;SDS011;68477;42.698;23.342;2023-04-24T10:24:12;5.35;;;4.32;;
79076;SDS011;68477;42.698;23.342;2023-04-24T10:26:46;8.18;;;5.20;;
79076;SDS011;68477;42.698;23.342;2023-04-24T10:29:13;8.85;;;4.65;;
79076;SDS011;68477;42.698;23.342;2023-04-24T10:31:40;7.43;;;4.53;;
79076;SDS011;68477;42.698;23.342;2023-04-24T10:34:06;14.68;;;4.88;;
79076;SDS011;68477;42.698;23.342;2023-04-24T10:36:34;6.18;;;4.75;;
79076;SDS011;68477;42.698;23.342;2023-04-24T10:39:02;8.90;;;4.65;;
79076;SDS011;68477;42.698;23.342;2023-04-24T10:41:31;7.43;;;4.80;;
79076;SDS011;68477;42.698;23.342;2023-04-24T10:44:10;9.52;;;4.90;;
79076;SDS011;68477;42.698;23.342;2023-04-24T10:46:37;8.35;;;5.32;;
79076;SDS011;68477;42.698;23.342;2023-04-24T10:49:07;8.32;;;5.57;;
79076;SDS011;68477;42.698;23.342;2023-04-24T10:51:47;8.32;;;5.18;;
79076;SDS011;68477;42.698;23.342;2023-04-24T10:56:52;7.22;;;4.80;;
79076;SDS011;68477;42.698;23.342;2023-04-24T10:59:25;10.40;;;5.63;;
79076;SDS011;68477;42.698;23.342;2023-04-24T11:01:55;9.32;;;5.35;;
79076;SDS011;68477;42.698;23.342;2023-04-24T11:04:30;7.32;;;5.03;;
79076;SDS011;68477;42.698;23.342;2023-04-24T11:06:57;9.55;;;4.60;;
79076;SDS011;68477;42.698;23.342;2023-04-24T11:09:22;8.40;;;4.75;;
79076;SDS011;68477;42.698;23.342;2023-04-24T11:11:53;7.68;;;4.50;;
79076;SDS011;68477;42.698;23.342;2023-04-24T11:14:29;13.07;;;6.18;;
79076;SDS011;68477;42.698;23.342;2023-04-24T11:16:54;9.85;;;5.65;;
79076;SDS011;68477;42.698;23.342;2023-04-24T11:19:23;9.32;;;5.55;;
79076;SDS011;68477;42.698;23.342;2023-04-24T11:22:00;7.47;;;4.72;;
79076;SDS011;68477;42.698;23.342;2023-04-24T11:24:39;9.65;;;4.68;;
79076;SDS011;68477;42.698;23.342;2023-04-24T11:29:49;9.13;;;4.88;;
79076;SDS011;68477;42.698;23.342;2023-04-24T11:32:27;8.88;;;4.40;;
79076;SDS011;68477;42.698;23.342;2023-04-24T11:34:55;16.30;;;5.43;;
79076;SDS011;68477;42.698;23.342;2023-04-24T11:37:53;8.90;;;5.18;;
79076;SDS011;68477;42.698;23.342;2023-04-24T11:40:19;6.13;;;5.13;;
79076;SDS011;68477;42.698;23.342;2023-04-24T11:42:51;9.90;;;5.20;;
79076;SDS011;68477;42.698;23.342;2023-04-24T11:45:18;6.55;;;4.78;;
79076;SDS011;68477;42.698;23.342;2023-04-24T11:47:46;5.30;;;4.00;;
79076;SDS011;68477;42.698;23.342;2023-04-24T11:50:14;5.38;;;4.32;;
79076;SDS011;68477;42.698;23.342;2023-04-24T11:52:41;6.32;;;4.25;;
79076;SDS011;68477;42.698;23.342;2023-04-24T11:55:12;15.52;;;7.65;;
79076;SDS011;68477;42.698;23.342;2023-04-24T11:57:58;6.32;;;4.25;;
79076;SDS011;68477;42.698;23.342;2023-04-24T12:00:28;6.78;;;4.55;;
79076;SDS011;68477;42.698;23.342;2023-04-24T12:05:30;5.63;;;3.95;;
79076;SDS011;68477;42.698;23.342;2023-04-24T12:07:56;8.13;;;4.22;;
79076;SDS011;68477;42.698;23.342;2023-04-24T12:10:22;5.05;;;3.80;;
79076;SDS011;68477;42.698;23.342;2023-04-24T12:12:49;5.63;;;4.38;;
79076;SDS011;68477;42.698;23.342;2023-04-24T12:15:17;5.38;;;3.90;;
79076;SDS011;68477;42.698;23.342;2023-04-24T12:17:43;4.97;;;3.90;;
79076;SDS011;68477;42.698;23.342;2023-04-24T12:20:10;7.53;;;3.63;;
79076;SDS011;68477;42.698;23.342;2023-04-24T12:22:58;8.13;;;4.38;;
79076;SDS011;68477;42.698;23.342;2023-04-24T12:25:26;6.07;;;3.97;;
79076;SDS011;68477;42.698;23.342;2023-04-24T12:27:55;5.32;;;4.07;;
79076;SDS011;68477;42.698;23.342;2023-04-24T12:30:41;5.07;;;3.88;;
79076;SDS011;68477;42.698;23.342;2023-04-24T12:33:16;7.00;;;4.38;;
79076;SDS011;68477;42.698;23.342;2023-04-24T12:35:45;5.80;;;4.32;;
79076;SDS011;68477;42.698;23.342;2023-04-24T12:38:11;9.50;;;4.57;;
79076;SDS011;68477;42.698;23.342;2023-04-24T12:40:38;5.13;;;3.70;;
79076;SDS011;68477;42.698;23.342;2023-04-24T12:43:14;6.60;;;4.18;;
79076;SDS011;68477;42.698;23.342;2023-04-24T12:45:40;6.50;;;3.90;;
79076;SDS011;68477;42.698;23.342;2023-04-24T12:48:06;5.38;;;3.33;;
79076;SDS011;68477;42.698;23.342;2023-04-24T12:50:31;5.80;;;4.00;;
79076;SDS011;68477;42.698;23.342;2023-04-24T12:52:57;4.45;;;3.40;;
79076;SDS011;68477;42.698;23.342;2023-04-24T12:55:22;4.25;;;3.33;;
79076;SDS011;68477;42.698;23.342;2023-04-24T12:57:47;7.47;;;4.10;;
79076;SDS011;68477;42.698;23.342;2023-04-24T13:00:13;6.43;;;4.00;;
79076;SDS011;68477;42.698;23.342;2023-04-24T13:02:39;4.25;;;3.63;;
79076;SDS011;68477;42.698;23.342;2023-04-24T13:05:05;7.55;;;4.22;;
79076;SDS011;68477;42.698;23.342;2023-04-24T13:07:30;4.90;;;3.50;;
79076;SDS011;68477;42.698;23.342;2023-04-24T13:09:56;6.60;;;4.30;;
79076;SDS011;68477;42.698;23.342;2023-04-24T13:12:22;5.63;;;3.97;;
79076;SDS011;68477;42.698;23.342;2023-04-24T13:14:51;6.97;;;4.40;;
79076;SDS011;68477;42.698;23.342;2023-04-24T13:17:17;7.30;;;3.90;;
79076;SDS011;68477;42.698;23.342;2023-04-24T13:19:43;6.47;;;4.50;;
79076;SDS011;68477;42.698;23.342;2023-04-24T13:22:10;6.88;;;4.50;;
79076;SDS011;68477;42.698;23.342;2023-04-24T13:24:36;8.32;;;4.25;;
79076;SDS011;68477;42.698;23.342;2023-04-24T13:27:02;7.10;;;4.40;;
79076;SDS011;68477;42.698;23.342;2023-04-24T13:29:28;5.47;;;4.10;;
79076;SDS011;68477;42.698;23.342;2023-04-24T13:31:54;6.32;;;4.07;;
79076;SDS011;68477;42.698;23.342;2023-04-24T13:34:20;7.30;;;3.78;;
79076;SDS011;68477;42.698;23.342;2023-04-24T13:36:46;7.72;;;3.97;;
79076;SDS011;68477;42.698;23.342;2023-04-24T13:39:12;6.88;;;4.00;;
79076;SDS011;68477;42.698;23.342;2023-04-24T13:41:37;5.78;;;4.10;;
79076;SDS011;68477;42.698;23.342;2023-04-24T13:44:03;8.95;;;4.22;;
79076;SDS011;68477;42.698;23.342;2023-04-24T13:46:29;6.25;;;3.78;;
79076;SDS011;68477;42.698;23.342;2023-04-24T13:48:56;4.93;;;4.00;;
79076;SDS011;68477;42.698;23.342;2023-04-24T13:51:22;5.68;;;3.80;;
79076;SDS011;68477;42.698;23.342;2023-04-24T13:53:48;5.80;;;4.43;;
79076;SDS011;68477;42.698;23.342;2023-04-24T13:56:14;5.95;;;4.10;;
79076;SDS011;68477;42.698;23.342;2023-04-24T13:58:39;6.93;;;4.22;;
79076;SDS011;68477;42.698;23.342;2023-04-24T14:01:05;10.70;;;4.90;;
79076;SDS011;68477;42.698;23.342;2023-04-24T14:03:31;8.55;;;4.40;;
79076;SDS011;68477;42.698;23.342;2023-04-24T14:05:58;5.85;;;4.25;;
79076;SDS011;68477;42.698;23.342;2023-04-24T14:08:23;6.25;;;4.75;;
79076;SDS011;68477;42.698;23.342;2023-04-24T14:10:50;8.43;;;4.15;;
79076;SDS011;68477;42.698;23.342;2023-04-24T14:13:15;6.78;;;4.20;;
79076;SDS011;68477;42.698;23.342;2023-04-24T14:15:41;6.45;;;4.47;;
79076;SDS011;68477;42.698;23.342;2023-04-24T14:18:07;7.07;;;4.35;;
79076;SDS011;68477;42.698;23.342;2023-04-24T14:20:33;5.95;;;3.60;;
79076;SDS011;68477;42.698;23.342;2023-04-24T14:22:59;6.80;;;4.07;;
79076;SDS011;68477;42.698;23.342;2023-04-24T14:25:25;5.68;;;3.97;;
79076;SDS011;68477;42.698;23.342;2023-04-24T14:27:51;6.03;;;3.67;;
79076;SDS011;68477;42.698;23.342;2023-04-24T14:30:16;6.25;;;4.35;;
79076;SDS011;68477;42.698;23.342;2023-04-24T14:32:42;9.35;;;4.03;;
79076;SDS011;68477;42.698;23.342;2023-04-24T14:35:08;7.25;;;3.88;;
79076;SDS011;68477;42.698;23.342;2023-04-24T14:37:33;5.97;;;4.25;;
79076;SDS011;68477;42.698;23.342;2023-04-24T14:39:59;5.18;;;4.22;;